createdAt,value
2023-05-12T00:00:44.801Z,41.29
2023-05-12T00:01:44.372Z,41.25
2023-05-12T00:02:44.574Z,41.26
2023-05-12T00:03:44.694Z,41.29
2023-05-12T00:04:44.626Z,41.25
2023-05-12T00:05:44.803Z,41.26
2023-05-12T00:06:44.677Z,41.29
2023-05-12T00:07:44.769Z,41.25
2023-05-12T00:08:44.842Z,41.29
2023-05-12T00:09:44.897Z,41.25
2023-05-12T00:10:45.344Z,41.26
2023-05-12T00:11:44.999Z,41.26
2023-05-12T00:12:45.075Z,41.25
2023-05-12T00:13:45.210Z,41.29
2023-05-12T00:14:45.194Z,41.26
2023-05-12T00:15:45.315Z,41.29
2023-05-12T00:16:45.320Z,41.24
2023-05-12T00:17:45.448Z,41.26
2023-05-12T00:18:45.423Z,41.29
2023-05-12T00:19:45.434Z,41.23
2023-05-12T00:20:45.809Z,41.32
2023-05-12T00:21:45.576Z,41.29
2023-05-12T00:22:45.656Z,41.25
2023-05-12T00:23:45.697Z,41.26
2023-05-12T00:24:45.752Z,41.29
2023-05-12T00:25:45.820Z,41.25
2023-05-12T00:26:45.864Z,41.27
2023-05-12T00:27:45.932Z,41.28
2023-05-12T00:28:45.952Z,41.25
2023-05-12T00:29:46.055Z,41.23
2023-05-12T00:30:46.101Z,41.27
2023-05-12T00:31:46.195Z,41.29
2023-05-12T00:32:46.340Z,41.18
2023-05-12T00:33:46.286Z,41.23
2023-05-12T00:34:46.332Z,41.25
2023-05-12T00:35:46.810Z,41.26
2023-05-12T00:36:46.456Z,41.30
2023-05-12T00:37:46.537Z,41.25
2023-05-12T00:38:46.608Z,41.29
2023-05-12T00:39:46.638Z,41.26
2023-05-12T00:40:46.805Z,41.26
2023-05-12T00:41:46.764Z,41.26
2023-05-12T00:42:46.791Z,41.26
2023-05-12T00:43:46.842Z,41.23
2023-05-12T00:44:46.862Z,41.26
2023-05-12T00:45:47.346Z,41.24
2023-05-12T00:46:46.953Z,41.27
2023-05-12T00:47:47.093Z,41.25
2023-05-12T00:48:47.107Z,41.29
2023-05-12T00:49:47.160Z,41.27
2023-05-12T00:50:47.197Z,41.24
2023-05-12T00:51:47.251Z,41.29
2023-05-12T00:52:48.837Z,41.23
2023-05-12T00:53:49.828Z,41.27
2023-05-12T00:54:47.332Z,41.27
2023-05-12T00:55:47.873Z,41.27
2023-05-12T00:56:47.338Z,41.24
2023-05-12T00:57:47.347Z,41.26
2023-05-12T00:58:47.381Z,41.24
2023-05-12T00:59:47.318Z,41.22
2023-05-12T01:00:47.382Z,41.26
2023-05-12T01:01:47.302Z,41.26
2023-05-12T01:02:47.465Z,41.26
2023-05-12T01:03:47.314Z,41.26
2023-05-12T01:04:47.292Z,41.24
2023-05-12T01:05:47.253Z,41.28
2023-05-12T01:06:47.259Z,41.18
2023-05-12T01:07:47.306Z,41.24
2023-05-12T01:08:47.237Z,41.26
2023-05-12T01:09:47.253Z,41.26
2023-05-12T01:10:47.330Z,41.23
2023-05-12T01:11:47.241Z,41.24
2023-05-12T01:12:47.236Z,41.24
2023-05-12T01:13:47.226Z,41.28
2023-05-12T01:14:47.195Z,41.20
2023-05-12T01:15:47.333Z,41.21
2023-05-12T01:16:47.210Z,41.24
2023-05-12T01:17:47.213Z,41.21
2023-05-12T01:18:47.289Z,41.23
2023-05-12T01:19:47.148Z,41.20
2023-05-12T01:20:47.138Z,41.26
2023-05-12T01:21:47.154Z,41.20
2023-05-12T01:22:47.181Z,41.15
2023-05-12T01:23:47.137Z,41.24
2023-05-12T01:24:47.121Z,41.20
2023-05-12T01:25:47.325Z,41.26
2023-05-12T01:26:47.108Z,41.21
2023-05-12T01:27:47.121Z,41.21
2023-05-12T01:28:47.111Z,41.22
2023-05-12T01:29:47.094Z,41.24
2023-05-12T01:30:47.415Z,41.22
2023-05-12T01:31:47.135Z,41.21
2023-05-12T01:32:47.104Z,41.18
2023-05-12T01:33:47.073Z,41.22
2023-05-12T01:34:47.080Z,41.17
2023-05-12T01:35:47.364Z,41.24
2023-05-12T01:36:47.055Z,41.22
2023-05-12T01:37:47.027Z,41.20
2023-05-12T01:38:47.040Z,41.21
2023-05-12T01:39:47.020Z,41.18
2023-05-12T01:40:47.019Z,41.21
2023-05-12T01:41:46.982Z,41.22
2023-05-12T01:42:46.995Z,41.18
2023-05-12T01:43:47.005Z,41.12
2023-05-12T01:44:47.002Z,41.21
2023-05-12T01:45:46.974Z,41.19
2023-05-12T01:46:47.110Z,41.18
2023-05-12T01:47:47.026Z,41.18
2023-05-12T01:48:46.943Z,41.18
2023-05-12T01:49:46.969Z,41.20
2023-05-12T01:50:46.951Z,41.15
2023-05-12T01:51:46.973Z,41.15
2023-05-12T01:52:46.968Z,41.15
2023-05-12T01:53:46.969Z,41.18
2023-05-12T01:54:46.919Z,41.12
2023-05-12T01:55:46.911Z,41.21
2023-05-12T01:56:46.913Z,41.15
2023-05-12T01:57:46.931Z,41.16
2023-05-12T01:58:46.925Z,41.14
2023-05-12T01:59:46.905Z,41.14
2023-05-12T02:00:46.888Z,41.14
2023-05-12T02:01:46.976Z,41.12
2023-05-12T02:02:46.968Z,41.17
2023-05-12T02:03:46.928Z,41.14
2023-05-12T02:04:46.869Z,41.12
2023-05-12T02:05:46.914Z,41.14
2023-05-12T02:06:46.875Z,41.15
2023-05-12T02:07:46.860Z,41.12
2023-05-12T02:08:46.855Z,41.12
2023-05-12T02:09:46.841Z,41.15
2023-05-12T02:10:46.856Z,41.11
2023-05-12T02:11:46.839Z,41.16
2023-05-12T02:12:46.844Z,41.12
2023-05-12T02:13:46.829Z,41.14
2023-05-12T02:14:46.824Z,41.09
2023-05-12T02:15:46.856Z,41.15
2023-05-12T02:16:46.973Z,41.12
2023-05-12T02:17:46.854Z,41.14
2023-05-12T02:18:46.884Z,41.16
2023-05-12T02:19:46.823Z,41.16
2023-05-12T02:20:46.828Z,41.14
2023-05-12T02:21:46.832Z,41.10
2023-05-12T02:22:46.831Z,41.13
2023-05-12T02:23:46.834Z,41.13
2023-05-12T02:24:46.768Z,41.12
2023-05-12T02:25:46.777Z,41.12
2023-05-12T02:26:46.788Z,41.10
2023-05-12T02:27:46.805Z,41.06
2023-05-12T02:28:46.754Z,41.12
2023-05-12T02:29:47.393Z,41.09
2023-05-12T02:30:47.394Z,41.08
2023-05-12T02:31:46.791Z,41.15
2023-05-12T02:32:46.749Z,41.16
2023-05-12T02:33:46.738Z,41.10
2023-05-12T02:34:46.728Z,41.07
2023-05-12T02:35:46.710Z,41.15
2023-05-12T02:36:46.755Z,41.13
2023-05-12T02:37:46.721Z,41.12
2023-05-12T02:38:46.720Z,41.09
2023-05-12T02:39:46.692Z,41.07
2023-05-12T02:40:47.404Z,41.09
2023-05-12T02:41:46.728Z,41.09
2023-05-12T02:42:46.718Z,41.07
2023-05-12T02:43:46.716Z,41.12
2023-05-12T02:44:46.699Z,41.07
2023-05-12T02:45:46.740Z,41.09
2023-05-12T02:46:46.682Z,41.07
2023-05-12T02:47:46.755Z,41.07
2023-05-12T02:48:46.698Z,41.06
2023-05-12T02:49:46.674Z,41.09
2023-05-12T02:50:46.688Z,41.06
2023-05-12T02:51:46.893Z,41.07
2023-05-12T02:52:46.692Z,41.09
2023-05-12T02:53:46.703Z,41.05
2023-05-12T02:54:46.673Z,41.09
2023-05-12T02:55:46.682Z,41.03
2023-05-12T02:56:46.692Z,41.06
2023-05-12T02:57:46.677Z,41.09
2023-05-12T02:58:46.675Z,41.07
2023-05-12T02:59:46.688Z,41.03
2023-05-12T03:00:48.660Z,41.09
2023-05-12T03:01:47.772Z,41.09
2023-05-12T03:02:46.792Z,41.06
2023-05-12T03:03:46.973Z,41.04
2023-05-12T03:04:46.653Z,41.09
2023-05-12T03:05:46.655Z,41.03
2023-05-12T03:06:46.889Z,41.00
2023-05-12T03:07:46.655Z,41.06
2023-05-12T03:08:46.666Z,41.03
2023-05-12T03:09:46.650Z,41.03
2023-05-12T03:10:46.650Z,41.07
2023-05-12T03:11:46.897Z,41.03
2023-05-12T03:12:46.648Z,40.99
2023-05-12T03:13:46.608Z,41.03
2023-05-12T03:14:46.613Z,41.03
2023-05-12T03:15:46.618Z,41.03
2023-05-12T03:16:46.996Z,41.03
2023-05-12T03:17:46.696Z,41.01
2023-05-12T03:18:46.697Z,41.01
2023-05-12T03:19:46.694Z,41.00
2023-05-12T03:20:46.733Z,41.03
2023-05-12T03:21:46.938Z,41.07
2023-05-12T03:22:46.745Z,41.04
2023-05-12T03:23:46.769Z,41.01
2023-05-12T03:24:46.811Z,41.01
2023-05-12T03:25:46.777Z,41.05
2023-05-12T03:26:46.918Z,41.04
2023-05-12T03:27:46.793Z,41.01
2023-05-12T03:28:46.822Z,41.04
2023-05-12T03:29:46.854Z,41.00
2023-05-12T03:30:46.893Z,40.98
2023-05-12T03:31:46.996Z,41.03
2023-05-12T03:32:46.957Z,41.01
2023-05-12T03:33:46.909Z,41.01
2023-05-12T03:34:46.917Z,41.00
2023-05-12T03:35:46.948Z,41.01
2023-05-12T03:36:46.927Z,41.04
2023-05-12T03:37:46.980Z,41.03
2023-05-12T03:38:46.965Z,40.95
2023-05-12T03:39:47.011Z,40.97
2023-05-12T03:40:46.986Z,40.99
2023-05-12T03:41:47.427Z,40.97
2023-05-12T03:42:47.008Z,40.97
2023-05-12T03:43:46.989Z,40.97
2023-05-12T03:44:46.984Z,40.97
2023-05-12T03:45:46.972Z,40.98
2023-05-12T03:46:47.086Z,40.97
2023-05-12T03:47:47.065Z,41.01
2023-05-12T03:48:46.973Z,40.97
2023-05-12T03:49:46.941Z,40.97
2023-05-12T03:50:46.959Z,40.99
2023-05-12T03:51:46.970Z,40.98
2023-05-12T03:52:46.974Z,40.97
2023-05-12T03:53:46.984Z,40.98
2023-05-12T03:54:47.013Z,40.95
2023-05-12T03:55:47.024Z,40.97
2023-05-12T03:56:47.070Z,40.98
2023-05-12T03:57:47.070Z,40.98
2023-05-12T03:58:47.064Z,40.95
2023-05-12T03:59:47.050Z,40.92
2023-05-12T04:00:47.044Z,40.94
2023-05-12T04:01:47.071Z,40.93
2023-05-12T04:02:47.059Z,40.95
2023-05-12T04:03:47.101Z,40.97
2023-05-12T04:04:46.999Z,40.91
2023-05-12T04:05:46.984Z,40.94
2023-05-12T04:06:47.024Z,40.92
2023-05-12T04:07:47.003Z,40.94
2023-05-12T04:08:46.982Z,41.00
2023-05-12T04:09:47.002Z,40.94
2023-05-12T04:10:47.004Z,40.98
2023-05-12T04:11:46.967Z,40.92
2023-05-12T04:12:46.981Z,40.97
2023-05-12T04:13:46.980Z,40.95
2023-05-12T04:14:46.960Z,40.95
2023-05-12T04:15:46.968Z,40.91
2023-05-12T04:16:47.008Z,40.91
2023-05-12T04:17:46.974Z,40.91
2023-05-12T04:18:46.994Z,40.98
2023-05-12T04:19:46.959Z,40.95
2023-05-12T04:20:46.952Z,40.93
2023-05-12T04:21:46.968Z,40.94
2023-05-12T04:22:46.898Z,40.94
2023-05-12T04:23:46.917Z,40.97
2023-05-12T04:24:46.918Z,40.95
2023-05-12T04:25:46.921Z,40.92
2023-05-12T04:26:46.947Z,40.94
2023-05-12T04:27:46.934Z,40.92
2023-05-12T04:28:46.897Z,40.90
2023-05-12T04:29:46.889Z,40.90
2023-05-12T04:30:46.908Z,40.91
2023-05-12T04:31:47.017Z,40.92
2023-05-12T04:32:46.990Z,40.89
2023-05-12T04:33:48.315Z,40.91
2023-05-12T04:34:46.895Z,40.89
2023-05-12T04:35:46.948Z,40.89
2023-05-12T04:36:46.926Z,40.92
2023-05-12T04:37:46.902Z,40.88
2023-05-12T04:38:46.923Z,40.92
2023-05-12T04:39:46.882Z,40.90
2023-05-12T04:40:46.910Z,40.88
2023-05-12T04:41:46.943Z,40.89
2023-05-12T04:42:46.888Z,40.89
2023-05-12T04:44:46.890Z,40.94
2023-05-12T04:45:46.895Z,40.86
2023-05-12T04:46:46.970Z,40.89
2023-05-12T04:47:46.904Z,40.92
2023-05-12T04:48:46.854Z,40.88
2023-05-12T04:49:46.827Z,40.95
2023-05-12T04:50:46.834Z,40.89
2023-05-12T04:51:46.846Z,40.84
2023-05-12T04:52:46.817Z,40.88
2023-05-12T04:53:46.857Z,40.89
2023-05-12T04:54:46.778Z,40.89
2023-05-12T04:55:46.834Z,40.88
2023-05-12T04:56:47.008Z,40.83
2023-05-12T04:57:46.782Z,40.90
2023-05-12T04:58:46.762Z,40.93
2023-05-12T04:59:46.749Z,41.05
2023-05-12T05:00:46.756Z,41.15
2023-05-12T05:01:47.172Z,41.23
2023-05-12T05:02:46.810Z,41.26
2023-05-12T05:03:46.776Z,41.24
2023-05-12T05:04:46.726Z,41.30
2023-05-12T05:05:46.732Z,41.32
2023-05-12T05:06:46.720Z,41.30
2023-05-12T05:07:46.994Z,41.30
2023-05-12T05:08:46.683Z,41.32
2023-05-12T05:09:46.676Z,41.42
2023-05-12T05:10:46.660Z,41.42
2023-05-12T05:11:46.666Z,41.42
2023-05-12T05:12:46.673Z,41.47
2023-05-12T05:13:46.643Z,41.49
2023-05-12T05:14:46.693Z,41.53
2023-05-12T05:15:46.681Z,41.53
2023-05-12T05:16:46.644Z,41.52
2023-05-12T05:17:46.645Z,41.56
2023-05-12T05:18:46.868Z,41.62
2023-05-12T05:19:57.880Z,41.56
2023-05-12T05:20:54.662Z,41.58
2023-05-12T05:21:47.602Z,41.65
2023-05-12T05:22:46.995Z,41.59
2023-05-12T05:23:46.600Z,41.60
2023-05-12T05:24:46.583Z,41.61
2023-05-12T05:25:46.569Z,41.65
2023-05-12T05:26:46.565Z,41.68
2023-05-12T05:27:46.538Z,41.66
2023-05-12T05:28:46.584Z,41.62
2023-05-12T05:29:46.545Z,41.69
2023-05-12T05:30:46.541Z,41.66
2023-05-12T05:31:46.644Z,41.68
2023-05-12T05:32:46.528Z,41.66
2023-05-12T05:33:46.505Z,41.64
2023-05-12T05:34:46.480Z,41.65
2023-05-12T05:35:46.507Z,41.73
2023-05-12T05:36:46.497Z,41.68
2023-05-12T05:37:46.509Z,41.64
2023-05-12T05:38:46.496Z,41.62
2023-05-12T05:39:46.459Z,41.66
2023-05-12T05:40:53.785Z,41.66
2023-05-12T05:41:47.453Z,41.67
2023-05-12T05:42:46.486Z,41.62
2023-05-12T05:43:46.442Z,41.65
2023-05-12T05:44:46.634Z,41.63
2023-05-12T05:45:46.431Z,41.67
2023-05-12T05:46:46.524Z,41.86
2023-05-12T05:47:46.496Z,41.76
2023-05-12T05:48:46.407Z,41.74
2023-05-12T05:49:46.388Z,41.87
2023-05-12T05:50:46.436Z,42.34
2023-05-12T05:51:46.373Z,42.18
2023-05-12T05:52:46.378Z,42.14
2023-05-12T05:53:46.384Z,42.09
2023-05-12T05:54:46.374Z,42.67
2023-05-12T05:55:46.391Z,42.39
2023-05-12T05:56:46.487Z,42.28
2023-05-12T05:57:46.990Z,42.56
2023-05-12T05:58:46.554Z,43.48
2023-05-12T05:59:46.631Z,43.07
2023-05-12T06:00:46.643Z,42.46
2023-05-12T06:01:46.694Z,42.33
2023-05-12T06:02:47.213Z,42.20
2023-05-12T06:03:46.863Z,42.17
2023-05-12T06:04:46.747Z,42.16
2023-05-12T06:05:46.814Z,42.12
2023-05-12T06:06:46.824Z,42.10
2023-05-12T06:07:46.903Z,42.17
2023-05-12T06:08:46.876Z,42.14
2023-05-12T06:09:46.941Z,42.16
2023-05-12T06:10:46.975Z,42.19
2023-05-12T06:11:47.003Z,42.22
2023-05-12T06:12:47.526Z,42.20
2023-05-12T06:13:47.061Z,42.26
2023-05-12T06:14:47.096Z,42.20
2023-05-12T06:15:47.135Z,42.26
2023-05-12T06:16:47.253Z,42.30
2023-05-12T06:17:47.523Z,42.27
2023-05-12T06:18:47.332Z,42.27
2023-05-12T06:19:47.315Z,42.30
2023-05-12T06:20:47.408Z,42.30
2023-05-12T06:21:47.398Z,42.28
2023-05-12T06:22:47.522Z,42.30
2023-05-12T06:23:47.525Z,42.29
2023-05-12T06:24:47.547Z,42.29
2023-05-12T06:25:47.555Z,42.31
2023-05-12T06:26:47.657Z,42.32
2023-05-12T06:27:47.673Z,42.29
2023-05-12T06:28:47.713Z,42.31
2023-05-12T06:29:47.743Z,42.29
2023-05-12T06:30:47.805Z,42.32
2023-05-12T06:31:47.906Z,42.32
2023-05-12T06:32:47.910Z,42.29
2023-05-12T06:33:47.958Z,42.33
2023-05-12T06:34:47.990Z,42.35
2023-05-12T06:35:48.030Z,42.34
2023-05-12T06:36:48.096Z,42.34
2023-05-12T06:37:48.498Z,42.30
2023-05-12T06:38:48.201Z,42.32
2023-05-12T06:39:48.256Z,42.35
2023-05-12T06:40:48.315Z,42.30
2023-05-12T06:41:48.338Z,42.31
2023-05-12T06:42:48.401Z,42.29
2023-05-12T06:43:48.429Z,42.29
2023-05-12T06:44:48.507Z,42.30
2023-05-12T06:45:48.572Z,42.27
2023-05-12T06:46:48.632Z,42.33
2023-05-12T06:47:48.709Z,42.33
2023-05-12T06:48:48.729Z,42.33
2023-05-12T06:49:48.787Z,42.26
2023-05-12T06:50:48.811Z,42.29
2023-05-12T06:51:48.860Z,42.26
2023-05-12T06:52:49.039Z,42.40
2023-05-12T06:53:48.971Z,42.52
2023-05-12T06:54:49.000Z,42.39
2023-05-12T06:55:49.078Z,42.32
2023-05-12T06:56:49.109Z,42.58
2023-05-12T06:57:49.154Z,42.95
2023-05-12T06:58:49.788Z,42.64
2023-05-12T06:59:49.222Z,42.87
2023-05-12T07:00:49.259Z,42.84
2023-05-12T07:01:49.336Z,42.95
2023-05-12T07:02:49.565Z,43.21
2023-05-12T07:03:49.335Z,42.89
2023-05-12T07:04:49.302Z,42.77
2023-05-12T07:05:49.357Z,42.91
2023-05-12T07:06:49.357Z,42.67
2023-05-12T07:07:49.374Z,42.48
2023-05-12T07:08:50.389Z,42.23
2023-05-12T07:09:49.407Z,42.14
2023-05-12T07:10:49.451Z,41.60
2023-05-12T07:11:49.520Z,41.52
2023-05-12T07:12:50.027Z,40.96
2023-05-12T07:13:49.600Z,41.09
2023-05-12T07:14:49.693Z,40.61
2023-05-12T07:15:49.759Z,40.81
2023-05-12T07:16:49.738Z,40.66
2023-05-12T07:17:49.863Z,40.73
2023-05-12T07:18:49.751Z,40.43
2023-05-12T07:19:49.774Z,40.58
2023-05-12T07:20:49.762Z,40.58
2023-05-12T07:21:49.784Z,40.54
2023-05-12T07:22:49.754Z,40.54
2023-05-12T07:23:49.794Z,40.58
2023-05-12T07:24:49.832Z,40.69
2023-05-12T07:25:49.818Z,40.75
2023-05-12T07:26:49.864Z,40.81
2023-05-12T07:27:49.867Z,40.76
2023-05-12T07:28:49.896Z,41.06
2023-05-12T07:29:49.913Z,41.34
2023-05-12T07:30:50.182Z,41.22
2023-05-12T07:31:50.104Z,41.18
2023-05-12T07:32:50.054Z,40.99
2023-05-12T07:33:50.046Z,41.11
2023-05-12T07:34:50.071Z,41.09
2023-05-12T07:35:50.084Z,40.97
2023-05-12T07:36:50.137Z,40.88
2023-05-12T07:37:50.563Z,40.63
2023-05-12T07:38:50.234Z,40.80
2023-05-12T07:39:50.252Z,40.64
2023-05-12T07:40:50.306Z,40.90
2023-05-12T07:41:50.373Z,40.91
2023-05-12T07:42:50.414Z,40.87
2023-05-12T07:43:50.449Z,40.93
2023-05-12T07:44:50.510Z,40.94
2023-05-12T07:45:50.548Z,40.99
2023-05-12T07:46:50.622Z,41.05
2023-05-12T07:47:50.640Z,40.89
2023-05-12T07:48:50.677Z,41.66
2023-05-12T07:49:50.746Z,41.83
2023-05-12T07:50:50.730Z,41.77
2023-05-12T07:51:50.775Z,42.18
2023-05-12T07:52:50.827Z,41.89
2023-05-12T07:53:50.797Z,41.94
2023-05-12T07:54:50.844Z,42.10
2023-05-12T07:55:50.853Z,41.86
2023-05-12T07:56:50.857Z,42.26
2023-05-12T07:57:50.896Z,41.99
2023-05-12T07:58:50.870Z,41.79
2023-05-12T07:59:50.845Z,41.76
2023-05-12T08:00:50.868Z,41.62
2023-05-12T08:01:50.890Z,41.64
2023-05-12T08:02:51.213Z,41.53
2023-05-12T08:03:50.935Z,41.54
2023-05-12T08:04:50.884Z,41.54
2023-05-12T08:05:50.879Z,41.49
2023-05-12T08:06:50.891Z,41.49
2023-05-12T08:07:50.871Z,41.53
2023-05-12T08:08:51.082Z,41.47
2023-05-12T08:09:50.879Z,41.47
2023-05-12T08:10:50.858Z,41.51
2023-05-12T08:11:52.014Z,41.50
2023-05-12T08:12:50.846Z,41.47
2023-05-12T08:13:50.904Z,41.49
2023-05-12T08:14:50.869Z,41.53
2023-05-12T08:15:50.893Z,41.47
2023-05-12T08:16:50.962Z,41.53
2023-05-12T08:17:50.990Z,41.47
2023-05-12T08:18:51.143Z,41.49
2023-05-12T08:19:50.989Z,41.49
2023-05-12T08:20:51.022Z,41.51
2023-05-12T08:21:51.056Z,41.48
2023-05-12T08:22:51.118Z,41.51
2023-05-12T08:23:51.544Z,41.47
2023-05-12T08:24:51.166Z,41.48
2023-05-12T08:25:51.202Z,41.49
2023-05-12T08:26:51.228Z,41.45
2023-05-12T08:27:51.341Z,41.49
2023-05-12T08:28:51.574Z,41.44
2023-05-12T08:29:51.390Z,41.50
2023-05-12T08:30:51.420Z,41.45
2023-05-12T08:31:51.508Z,41.43
2023-05-12T08:32:51.592Z,41.50
2023-05-12T08:34:02.772Z,41.41
2023-05-12T08:34:52.851Z,41.45
2023-05-12T08:35:51.561Z,41.46
2023-05-12T08:36:51.571Z,41.41
2023-05-12T08:37:51.595Z,41.41
2023-05-12T08:38:51.568Z,41.47
2023-05-12T08:39:51.600Z,41.43
2023-05-12T08:40:51.518Z,41.42
2023-05-12T08:41:51.533Z,41.43
2023-05-12T08:42:51.532Z,41.42
2023-05-12T08:43:51.543Z,41.41
2023-05-12T08:44:51.545Z,41.46
2023-05-12T08:45:51.592Z,41.51
2023-05-12T08:46:51.685Z,41.76
2023-05-12T08:47:51.678Z,42.09
2023-05-12T08:48:51.689Z,42.06
2023-05-12T08:49:52.567Z,41.89
2023-05-12T08:50:51.809Z,41.86
2023-05-12T08:51:57.789Z,41.69
2023-05-12T08:52:52.740Z,41.81
2023-05-12T08:53:51.708Z,41.72
2023-05-12T08:54:55.869Z,41.81
2023-05-12T08:57:08.955Z,41.76
2023-05-12T08:57:51.711Z,42.05
2023-05-12T08:58:52.099Z,41.82
2023-05-12T08:59:51.661Z,42.08
2023-05-12T09:00:51.697Z,41.89
2023-05-12T09:01:51.713Z,41.88
2023-05-12T09:02:53.978Z,42.38
2023-05-12T09:03:51.917Z,42.70
2023-05-12T09:04:51.932Z,42.31
2023-05-12T09:05:51.927Z,42.76
2023-05-12T09:06:54.365Z,42.25
2023-05-12T09:07:51.954Z,42.25
2023-05-12T09:08:52.108Z,42.19
2023-05-12T09:09:51.948Z,42.53
2023-05-12T09:10:51.939Z,42.25
2023-05-12T09:11:51.932Z,42.36
2023-05-12T09:12:51.926Z,42.41
2023-05-12T09:13:52.617Z,42.45
2023-05-12T09:14:51.953Z,42.65
2023-05-12T09:15:51.943Z,42.70
2023-05-12T09:16:52.134Z,42.93
2023-05-12T09:17:51.899Z,42.87
2023-05-12T09:18:52.206Z,43.04
2023-05-12T09:19:51.870Z,43.32
2023-05-12T09:20:51.892Z,43.30
2023-05-12T09:21:51.844Z,43.53
2023-05-12T09:22:52.043Z,43.60
2023-05-12T09:23:52.103Z,43.64
2023-05-12T09:24:51.839Z,43.55
2023-05-12T09:25:51.832Z,43.83
2023-05-12T09:26:51.855Z,43.88
2023-05-12T09:27:51.852Z,44.12
2023-05-12T09:28:52.080Z,44.00
2023-05-12T09:30:51.815Z,44.06
2023-05-12T09:31:51.821Z,43.98
2023-05-12T09:32:51.833Z,44.24
2023-05-12T09:33:51.799Z,44.25
2023-05-12T09:34:51.777Z,44.21
2023-05-12T09:35:51.795Z,44.29
2023-05-12T09:36:51.755Z,44.40
2023-05-12T09:37:51.790Z,44.57
2023-05-12T09:38:52.146Z,44.37
2023-05-12T09:39:51.751Z,44.42
2023-05-12T09:40:52.742Z,44.98
2023-05-12T09:41:51.741Z,45.08
2023-05-12T09:42:51.720Z,44.45
2023-05-12T09:43:51.726Z,46.23
2023-05-12T09:44:51.717Z,45.14
2023-05-12T09:45:51.742Z,45.02
2023-05-12T09:46:51.709Z,44.26
2023-05-12T09:47:51.727Z,43.96
2023-05-12T09:48:52.150Z,43.84
2023-05-12T09:49:51.708Z,43.71
2023-05-12T09:50:51.681Z,43.65
2023-05-12T09:51:51.663Z,43.66
2023-05-12T09:52:51.663Z,43.60
2023-05-12T09:53:51.661Z,43.56
2023-05-12T09:54:51.773Z,43.48
2023-05-12T09:55:51.709Z,43.49
2023-05-12T09:56:51.776Z,43.47
2023-05-12T09:57:51.831Z,43.47
2023-05-12T09:58:51.872Z,43.44
2023-05-12T09:59:51.900Z,43.43
2023-05-12T10:01:17.663Z,43.42
2023-05-12T10:01:53.030Z,43.43
2023-05-12T10:02:51.969Z,43.40
2023-05-12T10:03:52.160Z,43.40
2023-05-12T10:04:51.957Z,43.39
2023-05-12T10:05:51.915Z,43.41
2023-05-12T10:06:51.914Z,43.37
2023-05-12T10:07:51.931Z,43.37
2023-05-12T10:08:52.148Z,43.39
2023-05-12T10:09:51.921Z,43.36
2023-05-12T10:10:51.962Z,43.37
2023-05-12T10:11:53.782Z,43.36
2023-05-12T10:12:51.967Z,43.34
2023-05-12T10:13:52.139Z,43.41
2023-05-12T10:14:51.972Z,43.34
2023-05-12T10:15:51.973Z,43.38
2023-05-12T10:16:52.094Z,43.36
2023-05-12T10:17:53.905Z,43.43
2023-05-12T10:18:52.177Z,43.40
2023-05-12T10:19:51.986Z,43.38
2023-05-12T10:20:51.981Z,43.19
2023-05-12T10:21:52.011Z,43.07
2023-05-12T10:22:51.991Z,43.02
2023-05-12T10:23:51.989Z,42.87
2023-05-12T10:24:51.979Z,42.78
2023-05-12T10:25:51.997Z,42.69
2023-05-12T10:26:52.026Z,42.61
2023-05-12T10:27:52.031Z,42.58
2023-05-12T10:28:52.148Z,42.42
2023-05-12T10:29:53.554Z,42.39
2023-05-12T10:30:52.092Z,42.36
2023-05-12T10:31:52.171Z,42.25
2023-05-12T10:32:52.181Z,42.22
2023-05-12T10:33:52.657Z,42.13
2023-05-12T10:34:52.189Z,42.13
2023-05-12T10:35:52.208Z,42.09
2023-05-12T10:36:52.263Z,42.04
2023-05-12T10:37:52.261Z,42.06
2023-05-12T10:38:52.670Z,41.92
2023-05-12T10:39:52.336Z,41.96
2023-05-12T10:40:52.360Z,41.90
2023-05-12T10:41:52.779Z,41.86
2023-05-12T10:42:52.454Z,41.87
2023-05-12T10:43:52.474Z,41.84
2023-05-12T10:44:52.522Z,41.55
2023-05-12T10:45:52.573Z,41.39
2023-05-12T10:46:52.697Z,41.66
2023-05-12T10:47:52.642Z,41.81
2023-05-12T10:48:53.147Z,41.79
2023-05-12T10:49:52.728Z,41.89
2023-05-12T10:50:52.727Z,41.87
2023-05-12T10:51:52.751Z,41.82
2023-05-12T10:52:52.771Z,41.73
2023-05-12T10:53:54.782Z,41.71
2023-05-12T10:54:52.853Z,41.61
2023-05-12T10:55:53.272Z,41.51
2023-05-12T10:56:53.168Z,41.45
2023-05-12T10:57:53.269Z,41.05
2023-05-12T10:58:53.145Z,40.96
2023-05-12T10:59:53.486Z,40.87
2023-05-12T11:00:53.735Z,40.68
2023-05-12T11:01:53.596Z,40.84
2023-05-12T11:02:54.393Z,41.04
2023-05-12T11:03:54.037Z,40.86
2023-05-12T11:04:53.652Z,40.81
2023-05-12T11:05:53.552Z,40.81
2023-05-12T11:06:54.394Z,40.55
2023-05-12T11:07:54.619Z,40.62
2023-05-12T11:08:55.055Z,40.30
2023-05-12T11:09:58.548Z,40.63
2023-05-12T11:10:54.637Z,40.46
2023-05-12T11:11:54.279Z,40.61
2023-05-12T11:12:53.574Z,40.04
2023-05-12T11:13:53.674Z,39.48
2023-05-12T11:14:53.579Z,40.36
2023-05-12T11:15:53.582Z,40.44
2023-05-12T11:16:53.537Z,40.08
2023-05-12T11:17:53.594Z,39.47
2023-05-12T11:18:53.559Z,40.12
2023-05-12T11:19:53.653Z,40.19
2023-05-12T11:20:53.491Z,39.73
2023-05-12T11:21:53.576Z,39.90
2023-05-12T11:22:53.598Z,39.54
2023-05-12T11:23:53.775Z,39.82
2023-05-12T11:24:53.829Z,39.96
2023-05-12T11:25:53.790Z,40.02
2023-05-12T11:26:53.846Z,40.02
2023-05-12T11:27:53.891Z,40.05
2023-05-12T11:28:53.954Z,40.01
2023-05-12T11:29:54.185Z,40.04
2023-05-12T11:30:55.472Z,40.01
2023-05-12T11:31:54.128Z,40.00
2023-05-12T11:32:54.208Z,40.01
2023-05-12T11:34:08.307Z,40.01
2023-05-12T11:34:55.255Z,39.99
2023-05-12T11:35:54.203Z,39.91
2023-05-12T11:36:54.202Z,39.90
2023-05-12T11:37:54.209Z,39.75
2023-05-12T11:38:54.178Z,39.96
2023-05-12T11:39:54.684Z,39.78
2023-05-12T11:40:54.217Z,39.34
2023-05-12T11:42:02.060Z,39.12
2023-05-12T11:42:55.157Z,39.46
2023-05-12T11:43:54.182Z,38.59
2023-05-12T11:44:54.148Z,39.02
2023-05-12T11:45:54.232Z,39.20
2023-05-12T11:46:54.305Z,39.04
2023-05-12T11:47:54.152Z,38.46
2023-05-12T11:48:54.132Z,37.91
2023-05-12T11:49:54.102Z,38.55
2023-05-12T11:50:54.126Z,38.33
2023-05-12T11:51:54.076Z,38.35
2023-05-12T11:52:54.102Z,38.62
2023-05-12T11:53:54.076Z,38.50
2023-05-12T11:54:54.189Z,38.92
2023-05-12T11:55:54.101Z,39.18
2023-05-12T11:56:54.049Z,39.14
2023-05-12T11:57:54.069Z,39.22
2023-05-12T11:58:54.066Z,39.24
2023-05-12T11:59:54.105Z,39.18
2023-05-12T12:00:54.123Z,39.23
2023-05-12T12:01:54.190Z,39.14
2023-05-12T12:02:54.343Z,39.22
2023-05-12T12:03:54.278Z,39.22
2023-05-12T12:04:54.251Z,39.25
2023-05-12T12:05:54.275Z,39.28
2023-05-12T12:06:54.334Z,39.25
2023-05-12T12:07:54.411Z,39.25
2023-05-12T12:08:54.429Z,39.24
2023-05-12T12:09:54.503Z,39.18
2023-05-12T12:10:54.539Z,38.79
2023-05-12T12:11:54.635Z,39.12
2023-05-12T12:12:54.685Z,39.14
2023-05-12T12:13:54.757Z,39.05
2023-05-12T12:14:54.830Z,38.98
2023-05-12T12:15:54.917Z,38.99
2023-05-12T12:16:54.953Z,38.97
2023-05-12T12:17:55.052Z,38.95
2023-05-12T12:18:55.238Z,38.92
2023-05-12T12:19:55.137Z,38.95
2023-05-12T12:20:55.168Z,38.91
2023-05-12T12:21:55.238Z,38.87
2023-05-12T12:22:55.286Z,38.81
2023-05-12T12:23:55.351Z,38.95
2023-05-12T12:24:55.715Z,38.82
2023-05-12T12:25:55.514Z,38.84
2023-05-12T12:26:55.556Z,38.82
2023-05-12T12:27:55.606Z,38.84
2023-05-12T12:28:55.681Z,38.81
2023-05-12T12:29:56.231Z,38.80
2023-05-12T12:30:55.825Z,38.78
2023-05-12T12:31:55.871Z,38.75
2023-05-12T12:32:55.982Z,38.74
2023-05-12T12:33:55.993Z,38.71
2023-05-12T12:34:56.169Z,38.69
2023-05-12T12:35:56.097Z,38.65
2023-05-12T12:36:56.179Z,38.67
2023-05-12T12:37:56.216Z,38.62
2023-05-12T12:38:56.322Z,38.64
2023-05-12T12:39:56.356Z,38.62
2023-05-12T12:40:56.395Z,38.62
2023-05-12T12:41:56.483Z,38.54
2023-05-12T12:42:56.527Z,38.57
2023-05-12T12:43:56.585Z,38.51
2023-05-12T12:44:56.648Z,38.53
2023-05-12T12:45:56.708Z,38.51
2023-05-12T12:46:56.806Z,38.48
2023-05-12T12:47:56.849Z,38.46
2023-05-12T12:48:56.881Z,38.42
2023-05-12T12:49:56.931Z,38.45
2023-05-12T12:50:57.022Z,38.39
2023-05-12T12:51:57.062Z,38.38
2023-05-12T12:52:57.138Z,38.38
2023-05-12T12:53:57.171Z,38.38
2023-05-12T12:54:57.263Z,38.31
2023-05-12T12:55:57.293Z,38.31